createdAt,value
2018-04-12T00:00:30.515Z,26.27
2018-04-12T00:02:57.148Z,26.08
2018-04-12T00:05:24.088Z,27.85
2018-04-12T00:07:54.839Z,25.77
2018-04-12T00:10:21.518Z,26.33
2018-04-12T00:12:48.870Z,26.08
2018-04-12T00:15:15.588Z,27.13
2018-04-12T00:17:46.230Z,25.92
2018-04-12T00:20:13.853Z,26.00
2018-04-12T00:22:40.506Z,25.70
2018-04-12T00:25:07.202Z,26.87
2018-04-12T00:27:34.584Z,27.02
2018-04-12T00:30:01.191Z,26.65
2018-04-12T00:32:28.307Z,28.65
2018-04-12T00:34:55.105Z,26.20
2018-04-12T00:37:21.761Z,27.35
2018-04-12T00:39:48.403Z,27.40
2018-04-12T00:42:15.079Z,27.15
2018-04-12T00:44:41.731Z,25.77
2018-04-12T00:47:08.390Z,26.80
2018-04-12T00:49:35.106Z,29.05
2018-04-12T00:52:01.731Z,26.95
2018-04-12T00:54:28.364Z,27.95
2018-04-12T00:56:55.010Z,27.80
2018-04-12T00:59:21.677Z,26.42
2018-04-12T01:01:48.324Z,27.62
2018-04-12T01:04:15.838Z,26.50
2018-04-12T01:06:43.791Z,31.12
2018-04-12T01:09:10.446Z,27.45
2018-04-12T01:11:37.103Z,29.48
2018-04-12T01:14:07.839Z,28.25
2018-04-12T01:16:34.474Z,28.87
2018-04-12T01:19:01.176Z,27.77
2018-04-12T01:21:27.817Z,28.42
2018-04-12T01:23:54.514Z,28.33
2018-04-12T01:26:21.874Z,28.52
2018-04-12T01:28:54.345Z,27.45
2018-04-12T01:31:21.002Z,28.27
2018-04-12T01:33:48.239Z,29.27
2018-04-12T01:36:16.995Z,30.10
2018-04-12T01:38:43.619Z,32.03
2018-04-12T01:41:10.990Z,30.60
2018-04-12T01:43:37.700Z,30.45
2018-04-12T01:46:04.353Z,32.40
2018-04-12T01:48:31.071Z,33.38
2018-04-12T01:50:58.441Z,32.75
2018-04-12T01:53:25.133Z,32.45
2018-04-12T01:55:52.541Z,32.67
2018-04-12T01:58:19.230Z,32.92
2018-04-12T02:00:46.066Z,32.58
2018-04-12T02:03:12.817Z,32.83
2018-04-12T02:05:39.493Z,31.42
2018-04-12T02:08:06.163Z,32.35
2018-04-12T02:10:33.214Z,31.92
2018-04-12T02:13:01.815Z,32.53
2018-04-12T02:15:28.992Z,33.13
2018-04-12T02:17:55.655Z,32.20
2018-04-12T02:20:22.304Z,29.85
2018-04-12T02:22:49.007Z,32.42
2018-04-12T02:25:15.646Z,30.48
2018-04-12T02:27:42.271Z,31.87
2018-04-12T02:30:09.549Z,33.60
2018-04-12T02:32:36.227Z,31.40
2018-04-12T02:35:02.954Z,31.80
2018-04-12T02:37:29.528Z,31.60
2018-04-12T02:39:56.344Z,31.85
2018-04-12T02:42:23.042Z,30.85
2018-04-12T02:44:49.712Z,30.45
2018-04-12T02:47:16.375Z,31.05
2018-04-12T02:49:43.075Z,30.40
2018-04-12T02:52:09.760Z,31.20
2018-04-12T02:54:39.114Z,31.33
2018-04-12T02:57:06.992Z,33.63
2018-04-12T02:59:34.567Z,31.67
2018-04-12T03:02:01.216Z,31.85
2018-04-12T03:04:27.901Z,34.50
2018-04-12T03:06:54.537Z,33.58
2018-04-12T03:09:21.223Z,31.35
2018-04-12T03:11:47.842Z,32.78
2018-04-12T03:14:14.467Z,33.72
2018-04-12T03:16:41.195Z,33.88
2018-04-12T03:19:07.891Z,33.75
2018-04-12T03:21:38.786Z,35.03
2018-04-12T03:24:05.574Z,37.35
2018-04-12T03:26:32.194Z,36.20
2018-04-12T03:28:59.896Z,34.60
2018-04-12T03:31:26.576Z,32.67
2018-04-12T03:33:53.540Z,38.20
2018-04-12T03:36:20.240Z,36.67
2018-04-12T03:38:47.991Z,34.05
2018-04-12T03:41:14.966Z,37.17
2018-04-12T03:43:42.271Z,35.33
2018-04-12T03:46:08.997Z,37.30
2018-04-12T03:48:35.661Z,37.80
2018-04-12T03:51:03.306Z,36.90
2018-04-12T03:53:30.031Z,36.13
2018-04-12T03:55:57.339Z,35.90
2018-04-12T03:58:23.985Z,38.58
2018-04-12T04:00:52.554Z,37.63
2018-04-12T04:03:19.204Z,38.38
2018-04-12T04:05:46.246Z,37.65
2018-04-12T04:08:12.952Z,35.92
2018-04-12T04:10:45.436Z,37.97
2018-04-12T04:13:12.118Z,38.40
2018-04-12T04:15:44.748Z,39.55
2018-04-12T04:18:17.710Z,42.08
2018-04-12T04:20:50.172Z,41.08
2018-04-12T04:23:16.873Z,41.20
2018-04-12T04:25:43.530Z,37.20
2018-04-12T04:28:10.205Z,37.60
2018-04-12T04:30:36.863Z,41.22
2018-04-12T04:33:07.427Z,38.97
2018-04-12T04:35:34.126Z,41.08
2018-04-12T04:38:00.807Z,44.78
2018-04-12T04:40:27.518Z,44.90
2018-04-12T04:42:54.264Z,41.58
2018-04-12T04:45:20.922Z,44.35
2018-04-12T04:47:47.593Z,44.28
2018-04-12T04:50:14.290Z,43.67
2018-04-12T04:52:40.962Z,45.17
2018-04-12T04:55:08.194Z,41.72
2018-04-12T04:57:35.405Z,43.00
2018-04-12T05:00:02.776Z,44.22
2018-04-12T05:02:29.463Z,42.40
2018-04-12T05:04:57.891Z,42.53
2018-04-12T05:07:28.633Z,37.88
2018-04-12T05:09:55.461Z,42.70
2018-04-12T05:12:23.006Z,43.75
2018-04-12T05:14:49.765Z,37.10
2018-04-12T05:17:16.486Z,40.55
2018-04-12T05:19:47.835Z,43.22
2018-04-12T05:22:14.878Z,41.88
2018-04-12T05:24:41.507Z,41.20
2018-04-12T05:27:08.199Z,39.92
2018-04-12T05:29:35.782Z,42.08
2018-04-12T05:32:02.455Z,41.47
2018-04-12T05:34:29.154Z,38.28
2018-04-12T05:36:57.675Z,40.47
2018-04-12T05:39:24.295Z,41.05
2018-04-12T05:41:51.570Z,40.47
2018-04-12T05:44:23.326Z,39.35
2018-04-12T05:46:50.059Z,38.67
2018-04-12T05:49:17.235Z,39.72
2018-04-12T05:51:43.911Z,38.70
2018-04-12T05:54:11.862Z,38.67
2018-04-12T05:56:38.632Z,40.25
2018-04-12T05:59:05.338Z,38.83
2018-04-12T06:01:32.026Z,36.92
2018-04-12T06:03:58.797Z,36.90
2018-04-12T06:06:30.291Z,37.60
2018-04-12T06:08:57.102Z,39.55
2018-04-12T06:11:24.639Z,38.75
2018-04-12T06:13:51.341Z,37.25
2018-04-12T06:16:18.011Z,37.00
2018-04-12T06:18:44.715Z,39.45
2018-04-12T06:21:11.394Z,39.33
2018-04-12T06:23:38.043Z,35.75
2018-04-12T06:26:04.743Z,34.45
2018-04-12T06:28:32.307Z,37.70
2018-04-12T06:30:58.990Z,33.45
2018-04-12T06:33:25.690Z,34.33
2018-04-12T06:35:52.312Z,34.90
2018-04-12T06:38:18.987Z,33.20
2018-04-12T06:40:45.599Z,33.35
2018-04-12T06:43:12.243Z,34.58
2018-04-12T06:45:39.180Z,32.33
2018-04-12T06:48:05.915Z,35.45
2018-04-12T06:50:32.695Z,36.08
2018-04-12T06:52:59.491Z,33.20
2018-04-12T06:55:26.240Z,32.60
2018-04-12T06:57:52.999Z,36.38
2018-04-12T07:00:20.001Z,35.05
2018-04-12T07:02:46.855Z,34.15
2018-04-12T07:05:13.792Z,32.65
2018-04-12T07:07:40.776Z,32.83
2018-04-12T07:10:07.597Z,33.08
2018-04-12T07:12:34.492Z,33.20
2018-04-12T07:15:01.296Z,31.40
2018-04-12T07:17:28.197Z,31.80
2018-04-12T07:19:54.905Z,30.83
2018-04-12T07:22:21.629Z,32.25
2018-04-12T07:24:49.111Z,31.30
2018-04-12T07:27:15.923Z,29.55
2018-04-12T07:29:43.453Z,28.83
2018-04-12T07:32:10.909Z,30.05
2018-04-12T07:34:37.574Z,28.40
2018-04-12T07:37:04.381Z,26.45
2018-04-12T07:39:31.453Z,26.40
2018-04-12T07:41:58.263Z,28.00
2018-04-12T07:44:25.073Z,26.37
2018-04-12T07:46:51.907Z,27.77
2018-04-12T07:49:18.752Z,27.87
2018-04-12T07:51:45.635Z,27.67
2018-04-12T07:54:12.346Z,25.35
2018-04-12T07:56:39.058Z,25.95
2018-04-12T07:59:05.820Z,28.87
2018-04-12T08:01:32.543Z,28.83
2018-04-12T08:03:59.244Z,28.62
2018-04-12T08:06:25.957Z,29.30
2018-04-12T08:08:52.776Z,25.92
2018-04-12T08:11:19.549Z,25.60
2018-04-12T08:13:46.300Z,27.40
2018-04-12T08:16:13.090Z,25.62
2018-04-12T08:18:39.860Z,25.73
2018-04-12T08:21:06.609Z,26.05
2018-04-12T08:23:33.494Z,26.77
2018-04-12T08:26:00.386Z,25.92
2018-04-12T08:28:27.105Z,25.73
2018-04-12T08:30:53.921Z,26.05
2018-04-12T08:33:20.726Z,28.20
2018-04-12T08:35:47.477Z,29.50
2018-04-12T08:38:14.213Z,24.40
2018-04-12T08:40:41.056Z,25.10
2018-04-12T08:43:07.766Z,23.27
2018-04-12T08:45:35.345Z,25.33
2018-04-12T08:48:02.850Z,22.75
2018-04-12T08:50:29.584Z,23.45
2018-04-12T08:52:56.342Z,24.37
2018-04-12T08:55:23.202Z,22.62
2018-04-12T09:24:35.389Z,20.47
2018-04-12T09:27:02.343Z,19.60
2018-04-12T09:29:29.125Z,19.10
2018-04-12T09:31:55.872Z,19.90
2018-04-12T09:34:22.697Z,22.45
2018-04-12T09:36:49.495Z,20.73
2018-04-12T09:39:16.358Z,20.02
2018-04-12T09:41:43.182Z,19.87
2018-04-12T09:44:09.903Z,23.30
2018-04-12T09:46:36.540Z,20.45
2018-04-12T09:49:03.346Z,20.70
2018-04-12T09:51:30.853Z,20.98
2018-04-12T09:53:57.631Z,20.27
2018-04-12T09:56:24.407Z,21.05
2018-04-12T09:58:51.269Z,19.40
2018-04-12T10:01:18.095Z,20.15
2018-04-12T10:03:44.976Z,20.23
2018-04-12T10:06:17.444Z,19.90
2018-04-12T10:08:44.210Z,20.60
2018-04-12T10:11:11.073Z,20.02
2018-04-12T10:13:37.882Z,20.35
2018-04-12T10:16:05.778Z,20.48
2018-04-12T10:18:32.593Z,20.85
2018-04-12T10:20:59.369Z,20.02
2018-04-12T10:23:26.133Z,19.30
2018-04-12T10:25:52.978Z,20.77
2018-04-12T10:28:19.775Z,22.52
2018-04-12T10:30:46.741Z,22.02
2018-04-12T10:33:13.460Z,21.50
2018-04-12T10:35:40.228Z,20.90
2018-04-12T10:38:07.019Z,22.23
2018-04-12T10:40:33.798Z,20.58
2018-04-12T10:43:00.624Z,20.08
2018-04-12T10:45:27.435Z,20.27
2018-04-12T10:47:54.238Z,19.83
2018-04-12T10:50:21.032Z,22.15
2018-04-12T10:52:48.017Z,21.23
2018-04-12T10:55:14.898Z,18.83
2018-04-12T10:57:41.546Z,20.40
2018-04-12T11:00:08.293Z,19.90
2018-04-12T11:02:35.083Z,18.98
2018-04-12T11:05:01.905Z,21.45
2018-04-12T11:07:28.632Z,19.03
2018-04-12T11:09:55.371Z,21.20
2018-04-12T11:12:22.128Z,20.65
2018-04-12T11:14:48.939Z,20.35
2018-04-12T11:17:15.715Z,23.60
2018-04-12T11:19:42.673Z,22.02
2018-04-12T11:22:09.489Z,19.25
2018-04-12T11:24:36.280Z,21.33
2018-04-12T11:27:03.100Z,21.12
2018-04-12T11:29:29.915Z,19.55
2018-04-12T11:31:56.711Z,19.30
2018-04-12T11:34:23.627Z,21.05
2018-04-12T11:36:50.381Z,21.23
2018-04-12T11:39:17.159Z,20.97
2018-04-12T11:41:43.996Z,21.95
2018-04-12T11:44:10.784Z,20.27
2018-04-12T11:46:37.676Z,21.17
2018-04-12T11:49:04.596Z,25.23
2018-04-12T11:51:31.421Z,24.40
2018-04-12T11:53:58.175Z,23.90
2018-04-12T11:56:24.911Z,24.80
2018-04-12T11:58:51.720Z,23.52
2018-04-12T12:01:18.721Z,24.80
2018-04-12T12:03:45.509Z,23.52
2018-04-12T12:06:12.296Z,21.40
2018-04-12T12:08:39.182Z,23.52
2018-04-12T12:11:05.952Z,24.80
2018-04-12T12:13:32.823Z,25.80
2018-04-12T12:15:59.600Z,24.48
2018-04-12T12:18:26.409Z,25.88
2018-04-12T12:20:53.215Z,24.20
2018-04-12T12:23:20.067Z,26.80
2018-04-12T12:25:46.822Z,25.37
2018-04-12T12:28:13.626Z,25.02
2018-04-12T12:30:40.413Z,26.25
2018-04-12T12:33:07.252Z,25.85
2018-04-12T12:35:34.010Z,27.20
2018-04-12T12:38:00.858Z,26.42
2018-04-12T12:40:27.727Z,26.48
2018-04-12T12:42:54.538Z,27.07
2018-04-12T12:45:21.579Z,27.75
2018-04-12T12:47:48.311Z,25.05
2018-04-12T12:50:15.070Z,28.20
2018-04-12T12:52:41.796Z,28.12
2018-04-12T12:55:08.657Z,27.60
2018-04-12T12:57:35.454Z,25.23
2018-04-12T13:00:02.292Z,24.35
2018-04-12T13:02:29.078Z,25.55
2018-04-12T13:04:55.861Z,26.05
2018-04-12T13:07:22.631Z,27.67
2018-04-12T13:09:49.493Z,28.02
2018-04-12T13:12:16.298Z,28.70
2018-04-12T13:14:43.079Z,25.12
2018-04-12T13:17:09.879Z,27.62
2018-04-12T13:19:36.673Z,28.85
2018-04-12T13:22:03.377Z,28.80
2018-04-12T13:24:30.231Z,28.50
2018-04-12T13:26:57.044Z,30.57
2018-04-12T13:29:23.892Z,27.10
2018-04-12T13:31:50.886Z,28.13
2018-04-12T13:34:17.731Z,26.80
2018-04-12T13:36:45.237Z,28.58
2018-04-12T13:39:13.091Z,30.45
2018-04-12T13:41:39.874Z,30.55
2018-04-12T13:44:06.581Z,27.70
2018-04-12T13:46:33.490Z,31.50
2018-04-12T13:49:00.178Z,28.10
2018-04-12T13:51:26.974Z,27.10
2018-04-12T13:53:53.847Z,31.52
2018-04-12T13:56:20.692Z,31.73
2018-04-12T13:58:47.528Z,31.30
2018-04-12T14:01:14.304Z,30.93
2018-04-12T14:03:41.442Z,30.90
2018-04-12T14:06:08.254Z,31.87
2018-04-12T14:08:35.008Z,33.10
2018-04-12T14:11:01.847Z,32.28
2018-04-12T14:13:28.715Z,30.37
2018-04-12T14:15:55.622Z,30.90
2018-04-12T14:18:22.393Z,34.20
2018-04-12T14:20:49.119Z,30.53
2018-04-12T14:23:15.935Z,33.90
2018-04-12T14:25:42.743Z,31.57
2018-04-12T14:28:09.449Z,31.20
2018-04-12T14:30:36.373Z,31.10
2018-04-12T14:33:03.250Z,31.40
2018-04-12T14:35:30.016Z,32.10
2018-04-12T14:37:56.819Z,29.50
2018-04-12T14:40:23.561Z,32.63
2018-04-12T14:42:50.310Z,34.15
2018-04-12T14:45:17.189Z,33.73
2018-04-12T14:47:44.084Z,32.23
2018-04-12T14:50:10.839Z,35.30
2018-04-12T14:52:37.702Z,32.67
2018-04-12T14:55:04.615Z,33.85
2018-04-12T14:57:31.436Z,35.88
2018-04-12T14:59:58.314Z,33.13
2018-04-12T15:02:25.063Z,30.83
2018-04-12T15:04:52.059Z,32.17
2018-04-12T15:07:18.890Z,31.60
2018-04-12T15:09:45.799Z,32.97
2018-04-12T15:12:12.587Z,31.60
2018-04-12T15:14:39.493Z,32.35
2018-04-12T15:17:06.478Z,32.20
2018-04-12T15:19:33.331Z,34.08
2018-04-12T15:22:00.130Z,33.30
2018-04-12T15:24:26.905Z,33.90
2018-04-12T15:26:53.671Z,30.45
2018-04-12T15:29:20.473Z,34.97
2018-04-12T15:31:47.239Z,35.85
2018-04-12T15:34:14.038Z,34.87
2018-04-12T15:36:40.845Z,31.67
2018-04-12T15:39:07.753Z,34.22
2018-04-12T15:41:34.530Z,33.35
2018-04-12T15:44:01.421Z,31.15
2018-04-12T15:46:28.306Z,34.00
2018-04-12T15:48:55.053Z,32.10
2018-04-12T15:51:21.908Z,32.33
2018-04-12T15:53:48.788Z,32.33
2018-04-12T15:56:15.519Z,32.50
2018-04-12T15:58:42.404Z,30.80
2018-04-12T16:01:09.128Z,30.67
2018-04-12T16:03:36.057Z,30.60
2018-04-12T16:06:03.104Z,32.20
2018-04-12T16:08:29.848Z,33.25
2018-04-12T16:10:56.685Z,34.47
2018-04-12T16:13:23.483Z,32.40
2018-04-12T16:15:50.344Z,33.22
2018-04-12T16:18:17.219Z,32.30
2018-04-12T16:20:44.025Z,32.03
2018-04-12T16:23:10.909Z,32.30
2018-04-12T16:25:37.891Z,33.00
2018-04-12T16:28:04.716Z,33.97
2018-04-12T16:30:31.605Z,31.75
2018-04-12T16:32:58.347Z,34.20
2018-04-12T16:35:25.341Z,33.88
2018-04-12T16:37:52.284Z,35.53
2018-04-12T16:40:20.587Z,34.67
2018-04-12T16:42:47.365Z,33.05
2018-04-12T16:45:14.286Z,36.30
2018-04-12T16:47:41.070Z,35.42
2018-04-12T16:50:07.872Z,33.80
2018-04-12T16:52:34.821Z,33.67
2018-04-12T16:55:01.763Z,35.47
2018-04-12T16:57:29.460Z,35.73
2018-04-12T16:59:56.353Z,35.03
2018-04-12T17:02:23.205Z,34.50
2018-04-12T17:04:50.108Z,36.33
2018-04-12T17:07:16.929Z,37.00
2018-04-12T17:09:44.327Z,33.45
2018-04-12T17:12:11.528Z,34.78
2018-04-12T17:14:38.370Z,32.95
2018-04-12T17:17:05.148Z,34.15
2018-04-12T17:19:31.999Z,35.53
2018-04-12T17:21:59.012Z,33.95
2018-04-12T17:24:26.341Z,36.77
2018-04-12T17:26:53.255Z,35.15
2018-04-12T17:29:20.029Z,34.97
2018-04-12T17:31:47.069Z,34.85
2018-04-12T17:34:13.874Z,33.58
2018-04-12T17:36:40.758Z,35.40
2018-04-12T17:39:07.700Z,34.72
2018-04-12T17:41:35.137Z,34.35
2018-04-12T17:44:02.527Z,35.58
2018-04-12T17:46:31.315Z,32.75
2018-04-12T17:48:58.844Z,35.50
2018-04-12T17:51:26.572Z,35.47
2018-04-12T17:53:54.637Z,32.70
2018-04-12T17:56:22.632Z,35.85
2018-04-12T17:58:54.296Z,34.67
2018-04-12T18:01:25.435Z,32.60
2018-04-12T18:03:52.389Z,35.05
2018-04-12T18:06:19.355Z,36.33
2018-04-12T18:08:46.343Z,35.75
2018-04-12T18:11:17.994Z,37.03
2018-04-12T18:13:45.130Z,36.53
2018-04-12T18:16:12.077Z,37.35
2018-04-12T18:18:38.998Z,36.70
2018-04-12T18:21:06.006Z,37.72
2018-04-12T18:23:32.848Z,34.88
2018-04-12T18:26:03.281Z,39.35
2018-04-12T18:28:30.322Z,38.45
2018-04-12T18:30:57.515Z,37.58
2018-04-12T18:33:25.333Z,38.85
2018-04-12T18:35:52.219Z,40.33
2018-04-12T18:38:19.271Z,38.03
2018-04-12T18:40:47.907Z,36.42
2018-04-12T18:43:14.783Z,38.50
2018-04-12T18:45:42.067Z,39.88
2018-04-12T18:48:09.537Z,39.53
2018-04-12T18:50:36.811Z,39.00
2018-04-12T18:53:03.837Z,40.60
2018-04-12T18:55:30.740Z,50.83
2018-04-12T18:57:57.713Z,39.90
2018-04-12T19:00:28.720Z,38.80
2018-04-12T19:02:55.850Z,38.35
2018-04-12T19:05:22.754Z,39.50
2018-04-12T19:07:49.649Z,37.10
2018-04-12T19:10:16.839Z,39.88
2018-04-12T19:12:45.353Z,40.05
2018-04-12T19:15:12.204Z,40.45
2018-04-12T19:17:39.144Z,38.60
2018-04-12T19:20:10.447Z,41.92
2018-04-12T19:22:38.010Z,41.08
2018-04-12T19:25:19.465Z,38.55
2018-04-12T19:27:46.539Z,40.78
2018-04-12T19:30:14.697Z,38.63
2018-04-12T19:32:42.461Z,36.97
2018-04-12T19:35:09.595Z,40.33
2018-04-12T19:37:36.294Z,41.03
2018-04-12T19:40:03.532Z,41.70
2018-04-12T19:42:30.215Z,38.88
2018-04-12T19:44:57.057Z,39.85
2018-04-12T19:47:23.770Z,41.37
2018-04-12T19:49:50.569Z,42.38
2018-04-12T19:52:17.339Z,41.92
2018-04-12T19:54:44.361Z,38.10
2018-04-12T19:57:12.647Z,40.25
2018-04-12T19:59:39.777Z,40.55
2018-04-12T20:02:07.265Z,40.53
2018-04-12T20:04:35.883Z,39.88
2018-04-12T20:07:02.678Z,39.30
2018-04-12T20:09:31.123Z,38.80
2018-04-12T20:12:01.523Z,41.40
2018-04-12T20:14:30.479Z,39.97
2018-04-12T20:16:57.551Z,39.85
2018-04-12T20:19:24.291Z,40.17
2018-04-12T20:21:55.277Z,40.75
2018-04-12T20:24:22.288Z,41.08
2018-04-12T20:26:49.075Z,39.63
2018-04-12T20:29:16.241Z,39.67
2018-04-12T20:31:43.611Z,42.17
2018-04-12T20:34:14.538Z,38.20
2018-04-12T20:36:41.229Z,40.05
2018-04-12T20:39:08.340Z,38.60
2018-04-12T20:41:35.032Z,38.55
2018-04-12T20:44:05.697Z,40.85
2018-04-12T20:46:32.362Z,38.10
2018-04-12T20:48:59.001Z,40.80
2018-04-12T20:51:29.462Z,38.95
2018-04-12T20:53:56.373Z,39.80
2018-04-12T20:56:27.049Z,40.03
2018-04-12T20:58:53.989Z,41.75
2018-04-12T21:01:20.694Z,40.33
2018-04-12T21:03:47.385Z,41.25
2018-04-12T21:06:14.692Z,41.45
2018-04-12T21:08:41.395Z,39.13
2018-04-12T21:11:08.510Z,41.37
2018-04-12T21:13:35.253Z,40.92
2018-04-12T21:16:02.027Z,39.15
2018-04-12T21:18:28.778Z,39.35
2018-04-12T21:20:55.425Z,42.33
2018-04-12T21:23:22.210Z,41.22
2018-04-12T21:25:48.837Z,40.65
2018-04-12T21:28:15.527Z,39.03
2018-04-12T21:30:42.217Z,40.03
2018-04-12T21:33:08.864Z,42.08
2018-04-12T21:35:36.171Z,40.33
2018-04-12T21:38:03.728Z,40.65
2018-04-12T21:40:30.398Z,39.10
2018-04-12T21:42:57.047Z,40.30
2018-04-12T21:45:23.797Z,42.60
2018-04-12T21:47:50.983Z,40.00
2018-04-12T21:50:17.641Z,38.13
2018-04-12T21:52:44.288Z,40.92
2018-04-12T21:55:11.195Z,40.58
2018-04-12T21:57:37.854Z,41.00
2018-04-12T22:00:05.144Z,41.63
2018-04-12T22:02:40.242Z,41.45
2018-04-12T22:05:07.001Z,40.33
2018-04-12T22:07:33.790Z,40.95
2018-04-12T22:10:00.464Z,42.22
2018-04-12T22:12:27.478Z,41.65
2018-04-12T22:14:54.368Z,40.75
2018-04-12T22:17:22.651Z,41.95
2018-04-12T22:19:49.375Z,42.08
2018-04-12T22:22:16.054Z,43.78
2018-04-12T22:24:43.313Z,42.50
2018-04-12T22:27:10.015Z,41.22
2018-04-12T22:29:36.691Z,42.40
2018-04-12T22:32:03.347Z,45.92
2018-04-12T22:34:30.723Z,44.63
2018-04-12T22:36:58.134Z,42.65
2018-04-12T22:39:28.909Z,46.08
2018-04-12T22:41:56.180Z,46.10
2018-04-12T22:44:23.181Z,46.15
2018-04-12T22:46:56.128Z,25.92
2018-04-12T22:49:22.899Z,31.50
2018-04-12T22:51:49.542Z,33.38
2018-04-12T22:54:16.183Z,32.90
2018-04-12T22:56:42.908Z,35.50
2018-04-12T22:59:09.560Z,32.72
2018-04-12T23:01:36.192Z,32.72
2018-04-12T23:04:03.527Z,31.10
2018-04-12T23:06:30.243Z,31.02
2018-04-12T23:08:57.590Z,35.95
2018-04-12T23:11:25.096Z,31.92
2018-04-12T23:14:00.180Z,30.50
2018-04-12T23:16:26.870Z,31.60
2018-04-12T23:18:54.244Z,30.35
2018-04-12T23:21:22.528Z,27.25
2018-04-12T23:23:49.647Z,26.87
2018-04-12T23:26:20.335Z,28.38
2018-04-12T23:28:48.106Z,23.92
2018-04-12T23:31:14.770Z,26.35
2018-04-12T23:33:41.525Z,23.67
2018-04-12T23:36:08.915Z,25.12
2018-04-12T23:38:35.708Z,27.77
2018-04-12T23:41:03.275Z,29.42
2018-04-12T23:43:30.211Z,29.45
2018-04-12T23:45:56.980Z,31.00
2018-04-12T23:48:23.602Z,29.55
2018-04-12T23:50:50.275Z,29.15
2018-04-12T23:53:16.951Z,29.02
2018-04-12T23:55:43.614Z,30.75
2018-04-12T23:58:10.254Z,33.45
